Time;durP1;ratioP1;P1;durP2;ratioP2;P2;SDS_P1;SDS_P2;PMS_P1;PMS_P2;Temp;Humidity;BMP_temperature;BMP_pressure;BME280_temperature;BME280_humidity;BME280_pressure;Samples;Min_cycle;Max_cycle;Signal;HPM_P1;HPM_P2
2023/05/16 00:01:34;;;;;;;3.95;2.03;;;;;;;;;;10483676;28;20043;-62
2023/05/16 00:06:34;;;;;;;3.25;2.05;;;;;;;;;;10478641;28;20490;-61
2023/05/16 00:11:35;;;;;;;1.90;1.80;;;;;;;;;;10479334;28;20102;-61
2023/05/16 00:16:36;;;;;;;3.38;2.10;;;;;;;;;;10486819;28;20032;-61
2023/05/16 00:21:36;;;;;;;2.15;1.50;;;;;;;;;;10487290;28;20028;-61
2023/05/16 00:26:37;;;;;;;1.98;1.77;;;;;;;;;;10487043;28;20055;-61
2023/05/16 00:31:37;;;;;;;3.60;1.70;;;;;;;;;;10480673;28;20043;-62
2023/05/16 00:36:38;;;;;;;3.63;1.70;;;;;;;;;;10485192;28;20032;-62
2023/05/16 00:41:39;;;;;;;2.10;1.83;;;;;;;;;;10473406;28;20021;-62
2023/05/16 00:46:40;;;;;;;1.65;1.55;;;;;;;;;;10486571;28;20423;-62
2023/05/16 00:51:41;;;;;;;1.83;1.60;;;;;;;;;;10485186;28;20309;-62
2023/05/16 00:56:41;;;;;;;5.30;1.52;;;;;;;;;;10486274;28;20240;-62
2023/05/16 01:01:46;;;;;;;1.60;1.50;;;;;;;;;;10474711;28;20263;-62
2023/05/16 01:06:46;;;;;;;3.25;1.80;;;;;;;;;;10475738;28;20021;-60
2023/05/16 01:12:15;;;;;;;4.55;1.60;;;;;;;;;;10487337;28;20107;-60
2023/05/16 01:17:43;;;;;;;1.50;1.35;;;;;;;;;;10459362;28;20055;-61
2023/05/16 01:22:44;;;;;;;3.00;1.17;;;;;;;;;;10467783;28;20098;-60
2023/05/16 01:27:46;;;;;;;2.05;1.40;;;;;;;;;;10476635;28;20729;-62
2023/05/16 01:32:47;;;;;;;1.50;1.40;;;;;;;;;;10474238;28;20074;-61
2023/05/16 01:38:16;;;;;;;1.25;1.23;;;;;;;;;;10485060;28;20037;-61
2023/05/16 01:43:25;;;;;;;1.40;1.30;;;;;;;;;;10493575;28;20074;-62
2023/05/16 01:48:34;;;;;;;2.17;1.27;;;;;;;;;;10488317;28;20429;-62
2023/05/16 01:53:38;;;;;;;1.63;1.40;;;;;;;;;;10483792;28;20074;-62
2023/05/16 01:58:40;;;;;;;1.52;1.10;;;;;;;;;;10493043;28;20024;-61
2023/05/16 02:03:41;;;;;;;1.42;1.30;;;;;;;;;;10480574;28;20486;-61
2023/05/16 02:08:41;;;;;;;1.15;0.82;;;;;;;;;;10485886;28;20033;-61
2023/05/16 02:13:42;;;;;;;1.88;1.35;;;;;;;;;;10470319;28;20032;-62
2023/05/16 02:18:44;;;;;;;1.70;1.40;;;;;;;;;;10490829;28;20357;-61
2023/05/16 02:23:45;;;;;;;0.90;0.90;;;;;;;;;;10479367;28;20111;-61
2023/05/16 02:28:48;;;;;;;1.20;1.10;;;;;;;;;;10490695;28;20060;-61
2023/05/16 02:33:48;;;;;;;2.08;1.10;;;;;;;;;;10493731;28;20029;-60
2023/05/16 02:38:49;;;;;;;1.30;1.20;;;;;;;;;;10491641;28;20055;-59
2023/05/16 02:43:50;;;;;;;2.95;0.98;;;;;;;;;;10492795;28;20045;-60
2023/05/16 02:48:51;;;;;;;2.58;1.10;;;;;;;;;;10491695;28;20032;-60
2023/05/16 02:53:52;;;;;;;2.80;1.40;;;;;;;;;;10481080;28;20166;-61
2023/05/16 02:58:54;;;;;;;2.90;1.23;;;;;;;;;;10463662;28;20492;-61
2023/05/16 03:03:54;;;;;;;1.38;1.27;;;;;;;;;;10490330;28;20456;-60
2023/05/16 03:08:55;;;;;;;1.92;1.13;;;;;;;;;;10489034;28;20036;-60
2023/05/16 03:13:57;;;;;;;6.68;1.17;;;;;;;;;;10486080;28;20024;-61
2023/05/16 03:18:58;;;;;;;1.45;0.98;;;;;;;;;;10490602;28;20381;-60
2023/05/16 03:23:59;;;;;;;2.78;1.23;;;;;;;;;;10471837;28;20025;-61
2023/05/16 03:28:59;;;;;;;1.90;1.30;;;;;;;;;;10471136;28;20028;-61
2023/05/16 03:34:00;;;;;;;1.23;1.13;;;;;;;;;;10488870;28;20022;-60
2023/05/16 03:39:01;;;;;;;1.27;1.15;;;;;;;;;;10469184;28;20032;-60
2023/05/16 03:44:01;;;;;;;2.35;1.17;;;;;;;;;;10474711;28;20036;-60
2023/05/16 03:49:02;;;;;;;1.25;1.15;;;;;;;;;;10487712;28;20029;-60
2023/05/16 03:54:03;;;;;;;1.20;1.10;;;;;;;;;;10489392;28;20031;-59
2023/05/16 03:59:03;;;;;;;1.95;1.10;;;;;;;;;;10487626;28;20036;-59
2023/05/16 04:04:04;;;;;;;1.10;1.10;;;;;;;;;;10486736;28;20214;-60
2023/05/16 04:09:05;;;;;;;1.70;1.10;;;;;;;;;;10488362;28;20036;-59
2023/05/16 04:14:06;;;;;;;1.42;1.30;;;;;;;;;;10477805;28;20024;-59
2023/05/16 04:19:06;;;;;;;1.00;1.00;;;;;;;;;;10487568;28;20036;-61
2023/05/16 04:24:07;;;;;;;1.38;1.15;;;;;;;;;;10475060;28;20095;-61
2023/05/16 04:29:08;;;;;;;1.77;1.20;;;;;;;;;;10483415;28;20104;-60
2023/05/16 04:34:08;;;;;;;1.40;1.30;;;;;;;;;;10486861;28;20032;-61
2023/05/16 04:39:09;;;;;;;3.20;1.13;;;;;;;;;;10487467;28;20028;-61
2023/05/16 04:44:10;;;;;;;1.33;1.23;;;;;;;;;;10487545;28;20047;-62
2023/05/16 04:49:10;;;;;;;1.08;1.08;;;;;;;;;;10487318;28;20027;-61
2023/05/16 04:54:11;;;;;;;1.30;1.20;;;;;;;;;;10481553;28;20021;-60
2023/05/16 04:59:12;;;;;;;1.70;1.20;;;;;;;;;;10486847;28;20052;-60
2023/05/16 05:04:13;;;;;;;5.07;1.10;;;;;;;;;;10484200;28;20039;-61
2023/05/16 05:09:13;;;;;;;1.42;1.05;;;;;;;;;;10478274;28;20028;-61
2023/05/16 05:14:14;;;;;;;1.17;1.10;;;;;;;;;;10493585;28;20040;-60
2023/05/16 05:19:14;;;;;;;1.88;1.20;;;;;;;;;;10496442;28;20032;-61
2023/05/16 05:24:15;;;;;;;1.40;1.30;;;;;;;;;;10480314;28;20036;-62
2023/05/16 05:29:15;;;;;;;1.30;1.20;;;;;;;;;;10493161;28;20027;-61
2023/05/16 05:34:16;;;;;;;1.30;1.20;;;;;;;;;;10495340;28;20068;-61
2023/05/16 05:39:17;;;;;;;1.67;1.33;;;;;;;;;;10492600;28;20025;-61
2023/05/16 05:44:17;;;;;;;1.70;1.45;;;;;;;;;;10491720;28;20045;-59
2023/05/16 05:49:18;;;;;;;1.80;1.30;;;;;;;;;;10491457;28;20121;-59
2023/05/16 05:54:19;;;;;;;3.30;1.20;;;;;;;;;;10489995;28;20071;-58
2023/05/16 05:59:19;;;;;;;2.78;1.92;;;;;;;;;;10491101;28;20028;-58
2023/05/16 06:04:20;;;;;;;7.10;1.30;;;;;;;;;;10483385;28;20035;-64
2023/05/16 06:09:21;;;;;;;3.70;1.60;;;;;;;;;;10486269;28;20498;-60
2023/05/16 06:14:22;;;;;;;6.82;1.77;;;;;;;;;;10485739;28;20044;-61
2023/05/16 06:19:22;;;;;;;4.70;1.80;;;;;;;;;;10486812;28;20305;-59
2023/05/16 06:24:23;;;;;;;5.35;1.60;;;;;;;;;;10490077;28;20027;-59
2023/05/16 06:29:24;;;;;;;10.50;2.25;;;;;;;;;;10489789;28;20066;-60
2023/05/16 06:34:27;;;;;;;8.30;1.75;;;;;;;;;;10488650;28;20024;-60
2023/05/16 06:39:27;;;;;;;11.63;1.75;;;;;;;;;;10491676;28;20209;-60
2023/05/16 06:44:28;;;;;;;4.80;1.50;;;;;;;;;;10489718;28;20522;-59
2023/05/16 06:49:28;;;;;;;2.63;1.50;;;;;;;;;;10488457;28;20397;-60
2023/05/16 06:54:29;;;;;;;5.03;1.48;;;;;;;;;;10471166;28;20410;-59
2023/05/16 06:59:30;;;;;;;3.63;1.42;;;;;;;;;;10488761;28;20080;-60
2023/05/16 07:04:30;;;;;;;4.45;1.83;;;;;;;;;;10481226;28;21106;-60
2023/05/16 07:09:31;;;;;;;5.45;1.40;;;;;;;;;;10489415;28;20032;-60
2023/05/16 07:14:31;;;;;;;4.03;1.35;;;;;;;;;;10487926;28;20040;-60
2023/05/16 07:19:32;;;;;;;3.28;1.50;;;;;;;;;;10490353;28;20032;-60
2023/05/16 07:24:33;;;;;;;4.97;2.00;;;;;;;;;;10477433;28;20021;-60
2023/05/16 07:29:36;;;;;;;4.20;1.50;;;;;;;;;;10478984;28;20032;-60
2023/05/16 07:34:36;;;;;;;3.72;1.38;;;;;;;;;;10487935;28;20048;-60
2023/05/16 07:39:39;;;;;;;5.03;1.52;;;;;;;;;;10480706;28;20423;-60
2023/05/16 07:44:40;;;;;;;2.40;1.30;;;;;;;;;;10486101;28;20060;-60
2023/05/16 07:49:41;;;;;;;1.77;1.02;;;;;;;;;;10487528;28;20039;-60
2023/05/16 07:54:41;;;;;;;1.27;1.10;;;;;;;;;;10489089;28;20078;-60
2023/05/16 07:59:43;;;;;;;3.17;1.30;;;;;;;;;;10488724;28;20036;-60
2023/05/16 08:04:44;;;;;;;2.25;1.38;;;;;;;;;;10485153;28;20036;-60
2023/05/16 08:09:44;;;;;;;5.82;1.45;;;;;;;;;;10485764;28;20430;-60
2023/05/16 08:14:45;;;;;;;5.35;1.50;;;;;;;;;;10488007;28;20021;-60
2023/05/16 08:19:46;;;;;;;8.20;1.52;;;;;;;;;;10487477;28;20055;-60
2023/05/16 08:24:47;;;;;;;1.80;1.45;;;;;;;;;;10486027;28;20032;-60
2023/05/16 08:29:47;;;;;;;5.45;1.20;;;;;;;;;;10483276;28;20029;-59
2023/05/16 08:34:48;;;;;;;2.90;1.40;;;;;;;;;;10484243;28;20035;-60
2023/05/16 08:39:48;;;;;;;2.72;1.27;;;;;;;;;;10475865;28;20028;-60
2023/05/16 08:44:49;;;;;;;1.83;1.40;;;;;;;;;;10482445;28;20040;-60
2023/05/16 08:49:54;;;;;;;1.40;0.90;;;;;;;;;;10485659;28;20020;-60
2023/05/16 08:55:00;;;;;;;1.30;1.20;;;;;;;;;;10485918;28;20530;-60
2023/05/16 09:00:06;;;;;;;3.50;1.60;;;;;;;;;;10483315;28;20029;-60
2023/05/16 09:05:16;;;;;;;2.42;1.30;;;;;;;;;;10467448;28;20029;-60
2023/05/16 09:10:17;;;;;;;2.28;1.42;;;;;;;;;;10482131;28;20021;-60
2023/05/16 09:15:22;;;;;;;5.63;2.00;;;;;;;;;;10475988;28;20036;-60
2023/05/16 09:20:22;;;;;;;1.38;1.20;;;;;;;;;;10486408;28;20024;-60
2023/05/16 09:25:29;;;;;;;4.10;1.40;;;;;;;;;;10472402;28;20030;-60
2023/05/16 09:30:34;;;;;;;4.50;1.23;;;;;;;;;;10485292;28;20028;-60
2023/05/16 09:35:34;;;;;;;2.55;1.40;;;;;;;;;;10482840;28;20488;-60
2023/05/16 09:40:40;;;;;;;3.83;1.40;;;;;;;;;;10475826;28;20179;-60
2023/05/16 09:45:46;;;;;;;2.20;1.30;;;;;;;;;;10462479;28;20111;-60
2023/05/16 09:50:51;;;;;;;4.70;1.45;;;;;;;;;;10484069;28;20028;-60
2023/05/16 09:56:07;;;;;;;3.17;1.13;;;;;;;;;;10480282;28;20068;-60
2023/05/16 10:01:08;;;;;;;1.48;1.17;;;;;;;;;;10488841;28;20135;-61
2023/05/16 10:06:11;;;;;;;1.88;1.05;;;;;;;;;;10491188;28;20354;-61
2023/05/16 10:11:12;;;;;;;2.45;1.65;;;;;;;;;;10490446;28;20508;-61
2023/05/16 10:16:13;;;;;;;2.47;1.20;;;;;;;;;;10487689;28;20032;-60
2023/05/16 10:21:17;;;;;;;2.90;1.20;;;;;;;;;;10492871;28;20032;-61
2023/05/16 10:26:20;;;;;;;5.30;1.30;;;;;;;;;;10487221;28;20024;-61
2023/05/16 10:31:23;;;;;;;4.35;1.67;;;;;;;;;;10491452;28;20027;-61
2023/05/16 10:36:24;;;;;;;2.25;1.40;;;;;;;;;;10491824;28;20030;-61
2023/05/16 10:41:25;;;;;;;1.55;1.17;;;;;;;;;;10491943;28;20027;-60
2023/05/16 10:46:28;;;;;;;2.92;1.58;;;;;;;;;;10491243;28;20152;-61
2023/05/16 10:51:31;;;;;;;6.10;1.38;;;;;;;;;;10490816;28;20074;-61
2023/05/16 10:56:33;;;;;;;3.55;1.58;;;;;;;;;;10490551;28;20380;-61
2023/05/16 11:01:34;;;;;;;1.85;1.40;;;;;;;;;;10491352;28;20029;-61
2023/05/16 11:06:41;;;;;;;5.22;1.30;;;;;;;;;;10490118;28;20399;-61
2023/05/16 11:11:50;;;;;;;2.72;1.30;;;;;;;;;;10490578;28;20031;-61
2023/05/16 11:17:19;;;;;;;3.83;1.15;;;;;;;;;;10490058;28;20250;-60
2023/05/16 11:22:22;;;;;;;2.65;1.30;;;;;;;;;;10490168;28;20365;-61
2023/05/16 11:27:31;;;;;;;2.83;1.33;;;;;;;;;;10488855;28;20024;-61
2023/05/16 11:32:37;;;;;;;1.00;0.90;;;;;;;;;;10489862;28;20031;-60
2023/05/16 11:37:38;;;;;;;2.78;1.45;;;;;;;;;;10489534;28;20065;-60
2023/05/16 11:42:44;;;;;;;1.67;1.20;;;;;;;;;;10488107;28;20051;-61
2023/05/16 11:47:46;;;;;;;3.97;1.50;;;;;;;;;;10488994;28;20450;-61
2023/05/16 11:52:52;;;;;;;2.83;1.55;;;;;;;;;;10486603;28;20055;-61
2023/05/16 11:57:53;;;;;;;2.40;1.30;;;;;;;;;;10489864;28;20032;-60
2023/05/16 12:03:03;;;;;;;4.85;1.20;;;;;;;;;;10489098;28;20044;-61
2023/05/16 12:08:04;;;;;;;2.20;1.33;;;;;;;;;;10488323;28;20439;-60
2023/05/16 12:13:04;;;;;;;1.55;1.10;;;;;;;;;;10480825;28;20047;-61
2023/05/16 12:18:05;;;;;;;1.73;1.40;;;;;;;;;;10481685;28;20047;-61
2023/05/16 12:23:15;;;;;;;1.88;1.35;;;;;;;;;;10480229;28;20116;-61
2023/05/16 12:28:16;;;;;;;2.67;1.40;;;;;;;;;;10484703;28;20597;-61
2023/05/16 12:33:17;;;;;;;5.22;1.42;;;;;;;;;;10485542;28;20066;-61
2023/05/16 12:38:19;;;;;;;5.60;1.35;;;;;;;;;;10487795;28;20028;-60
2023/05/16 12:43:22;;;;;;;3.35;1.52;;;;;;;;;;10487194;28;20045;-61
2023/05/16 12:48:29;;;;;;;5.18;1.27;;;;;;;;;;10486533;28;20033;-60
2023/05/16 12:53:44;;;;;;;3.80;1.17;;;;;;;;;;10487896;28;20029;-60
2023/05/16 12:58:50;;;;;;;6.10;1.13;;;;;;;;;;10487261;28;20021;-60
2023/05/16 13:03:50;;;;;;;4.13;1.30;;;;;;;;;;10487335;28;20471;-60
2023/05/16 13:08:51;;;;;;;5.13;1.50;;;;;;;;;;10487265;28;20025;-60
2023/05/16 13:13:52;;;;;;;5.78;1.25;;;;;;;;;;10483288;28;20029;-60
2023/05/16 13:18:52;;;;;;;2.92;1.40;;;;;;;;;;10486703;28;20074;-60
2023/05/16 13:23:53;;;;;;;1.95;1.20;;;;;;;;;;10482303;28;20150;-60
2023/05/16 13:28:54;;;;;;;6.43;1.35;;;;;;;;;;10478658;28;20184;-60
2023/05/16 13:33:54;;;;;;;4.25;1.23;;;;;;;;;;10494401;28;20020;-60
2023/05/16 13:38:55;;;;;;;1.48;1.10;;;;;;;;;;10494045;28;20036;-60
2023/05/16 13:43:56;;;;;;;2.15;1.00;;;;;;;;;;10492272;28;20202;-60
2023/05/16 13:48:56;;;;;;;2.72;1.50;;;;;;;;;;10493834;28;20021;-60
2023/05/16 13:53:57;;;;;;;2.30;1.30;;;;;;;;;;10492880;28;20103;-60
2023/05/16 13:58:58;;;;;;;1.05;0.90;;;;;;;;;;10490594;28;20058;-60
2023/05/16 14:03:59;;;;;;;1.88;1.10;;;;;;;;;;10491700;28;20021;-60
2023/05/16 14:08:59;;;;;;;1.48;1.10;;;;;;;;;;10488827;28;20028;-60
2023/05/16 14:14:00;;;;;;;3.30;1.27;;;;;;;;;;10480261;28;20035;-60
2023/05/16 14:19:01;;;;;;;1.30;0.90;;;;;;;;;;10492573;28;20024;-60
2023/05/16 14:24:01;;;;;;;1.95;1.10;;;;;;;;;;10481779;28;20101;-60
2023/05/16 14:29:02;;;;;;;3.35;1.25;;;;;;;;;;10491807;28;20028;-60
2023/05/16 14:34:03;;;;;;;2.17;1.20;;;;;;;;;;10492075;28;20032;-60
2023/05/16 14:39:03;;;;;;;4.38;1.10;;;;;;;;;;10487559;28;20095;-60
2023/05/16 14:44:04;;;;;;;1.63;1.05;;;;;;;;;;10483639;28;20030;-60
2023/05/16 14:49:04;;;;;;;2.15;1.23;;;;;;;;;;10491581;28;20032;-60
2023/05/16 14:54:06;;;;;;;4.63;1.23;;;;;;;;;;10490656;28;20038;-61
2023/05/16 14:59:06;;;;;;;2.85;1.10;;;;;;;;;;10472945;28;20118;-62
2023/05/16 15:04:07;;;;;;;2.92;1.08;;;;;;;;;;10478764;28;20603;-61
2023/05/16 15:09:10;;;;;;;3.35;0.95;;;;;;;;;;10489166;28;20594;-62
2023/05/16 15:14:11;;;;;;;1.02;1.00;;;;;;;;;;10478498;28;20063;-61
2023/05/16 15:19:12;;;;;;;4.57;1.05;;;;;;;;;;10482718;28;20039;-61
2023/05/16 15:24:12;;;;;;;0.98;0.88;;;;;;;;;;10475370;28;20036;-61
2023/05/16 15:29:13;;;;;;;2.08;1.17;;;;;;;;;;10483904;28;20024;-61
2023/05/16 15:34:13;;;;;;;3.70;0.90;;;;;;;;;;10475162;28;20021;-61
2023/05/16 15:39:14;;;;;;;2.35;1.20;;;;;;;;;;10486748;28;20090;-61
2023/05/16 15:44:15;;;;;;;0.80;0.80;;;;;;;;;;10489655;28;20035;-61
2023/05/16 15:49:16;;;;;;;1.20;0.93;;;;;;;;;;10480575;28;20500;-61
2023/05/16 15:54:16;;;;;;;1.40;0.90;;;;;;;;;;10488074;28;20201;-61
2023/05/16 15:59:17;;;;;;;3.35;1.05;;;;;;;;;;10488518;28;20035;-61
2023/05/16 16:04:19;;;;;;;0.90;0.80;;;;;;;;;;10488214;28;20021;-61
2023/05/16 16:09:20;;;;;;;9.35;1.10;;;;;;;;;;10482396;28;20300;-61
2023/05/16 16:14:24;;;;;;;3.90;1.20;;;;;;;;;;10488793;28;20663;-61
2023/05/16 16:19:25;;;;;;;4.13;1.20;;;;;;;;;;10487815;28;20376;-61
2023/05/16 16:24:26;;;;;;;0.95;0.90;;;;;;;;;;10486397;28;20034;-61
2023/05/16 16:29:27;;;;;;;2.38;1.00;;;;;;;;;;10473522;28;20044;-61
2023/05/16 16:34:28;;;;;;;0.80;0.80;;;;;;;;;;10481951;28;20067;-61
2023/05/16 16:39:29;;;;;;;1.17;1.00;;;;;;;;;;10478594;28;20024;-65
2023/05/16 16:44:30;;;;;;;1.92;0.93;;;;;;;;;;10485687;28;20058;-65
2023/05/16 16:49:30;;;;;;;2.45;1.20;;;;;;;;;;10482188;28;20032;-67
2023/05/16 16:54:31;;;;;;;3.83;1.10;;;;;;;;;;10483957;28;20024;-65
2023/05/16 16:59:31;;;;;;;1.35;1.10;;;;;;;;;;10487914;28;20036;-66
2023/05/16 17:04:33;;;;;;;3.00;1.50;;;;;;;;;;10476448;28;20048;-67
2023/05/16 17:09:35;;;;;;;1.30;1.08;;;;;;;;;;10494945;28;20029;-65
2023/05/16 17:14:36;;;;;;;3.08;1.20;;;;;;;;;;10491282;28;20028;-65
2023/05/16 17:19:36;;;;;;;1.45;1.10;;;;;;;;;;10493298;28;20032;-66
2023/05/16 17:24:38;;;;;;;3.65;1.27;;;;;;;;;;10491464;28;20340;-65
2023/05/16 17:29:39;;;;;;;1.48;1.38;;;;;;;;;;10490535;28;20029;-66
2023/05/16 17:34:39;;;;;;;4.53;1.85;;;;;;;;;;10488186;28;20479;-66
2023/05/16 17:39:40;;;;;;;5.22;1.48;;;;;;;;;;10486540;28;20033;-67
2023/05/16 17:44:40;;;;;;;2.70;1.55;;;;;;;;;;10477122;28;20101;-65
2023/05/16 17:49:41;;;;;;;8.07;2.00;;;;;;;;;;10475767;28;20032;-65
2023/05/16 17:54:42;;;;;;;3.38;1.70;;;;;;;;;;10487248;28;20093;-65
2023/05/16 17:59:43;;;;;;;3.95;1.30;;;;;;;;;;10489148;28;20396;-66
2023/05/16 18:04:43;;;;;;;2.60;1.40;;;;;;;;;;10485877;28;20043;-64
2023/05/16 18:09:44;;;;;;;2.35;1.40;;;;;;;;;;10476483;28;20029;-64
2023/05/16 18:14:44;;;;;;;5.63;1.75;;;;;;;;;;10486642;28;20206;-65
2023/05/16 18:19:45;;;;;;;3.38;1.52;;;;;;;;;;10477452;28;20440;-64
2023/05/16 18:24:45;;;;;;;6.07;1.55;;;;;;;;;;10474968;28;20472;-65
2023/05/16 18:29:46;;;;;;;7.82;1.67;;;;;;;;;;10483691;28;20515;-65
2023/05/16 18:34:47;;;;;;;3.78;1.70;;;;;;;;;;10482702;28;20042;-67
2023/05/16 18:39:48;;;;;;;5.13;1.70;;;;;;;;;;10488397;28;20471;-65
2023/05/16 18:44:49;;;;;;;5.15;1.83;;;;;;;;;;10491602;28;20495;-65
2023/05/16 18:49:51;;;;;;;5.78;2.25;;;;;;;;;;10487059;28;20043;-60
2023/05/16 18:55:03;;;;;;;6.00;2.10;;;;;;;;;;10492144;28;20024;-61
2023/05/16 19:00:15;;;;;;;7.32;1.73;;;;;;;;;;10476616;28;20372;-60
2023/05/16 19:05:23;;;;;;;4.25;2.00;;;;;;;;;;10481393;28;20024;-60
2023/05/16 19:10:24;;;;;;;8.60;2.20;;;;;;;;;;10478669;28;20119;-60
2023/05/16 19:15:25;;;;;;;4.18;1.58;;;;;;;;;;10485228;28;20032;-62
2023/05/16 19:20:26;;;;;;;1.88;1.50;;;;;;;;;;10487421;28;20032;-61
2023/05/16 19:25:26;;;;;;;3.28;1.73;;;;;;;;;;10487248;28;20391;-60
2023/05/16 19:30:27;;;;;;;4.75;1.70;;;;;;;;;;10482984;28;20033;-60
2023/05/16 19:35:27;;;;;;;10.02;1.80;;;;;;;;;;10469458;28;20024;-61
2023/05/16 19:40:29;;;;;;;2.45;1.63;;;;;;;;;;10489389;28;20032;-60
2023/05/16 19:45:29;;;;;;;5.07;1.65;;;;;;;;;;10487824;28;20563;-67
2023/05/16 19:50:30;;;;;;;4.05;1.63;;;;;;;;;;10480775;28;20044;-65
2023/05/16 19:55:31;;;;;;;3.45;1.85;;;;;;;;;;10486880;28;20036;-65
2023/05/16 20:00:32;;;;;;;3.30;1.70;;;;;;;;;;10481989;28;20036;-68
2023/05/16 20:05:33;;;;;;;6.15;1.50;;;;;;;;;;10489515;28;20035;-66
2023/05/16 20:10:34;;;;;;;4.50;1.83;;;;;;;;;;10481517;28;20032;-73
2023/05/16 20:15:34;;;;;;;2.30;1.38;;;;;;;;;;10486789;28;20032;-64
2023/05/16 20:20:35;;;;;;;2.40;1.70;;;;;;;;;;10487585;28;20039;-65
2023/05/16 20:25:36;;;;;;;2.25;1.42;;;;;;;;;;10480174;28;20021;-64
2023/05/16 20:30:36;;;;;;;4.05;2.10;;;;;;;;;;10477153;28;20033;-64
2023/05/16 20:35:37;;;;;;;5.38;1.73;;;;;;;;;;10487372;28;20123;-65
2023/05/16 20:40:38;;;;;;;4.70;1.80;;;;;;;;;;10479123;28;20040;-65
2023/05/16 20:45:39;;;;;;;1.98;1.65;;;;;;;;;;10479663;28;20036;-61
2023/05/16 20:50:40;;;;;;;2.95;1.70;;;;;;;;;;10486496;28;20032;-60
2023/05/16 20:55:41;;;;;;;2.42;1.90;;;;;;;;;;10485102;28;20460;-61
2023/05/16 21:00:42;;;;;;;4.47;1.60;;;;;;;;;;10479344;28;20033;-62
2023/05/16 21:05:42;;;;;;;3.88;1.70;;;;;;;;;;10484114;28;20040;-61
2023/05/16 21:10:43;;;;;;;2.85;1.70;;;;;;;;;;10482366;28;20055;-61
2023/05/16 21:15:44;;;;;;;4.38;1.77;;;;;;;;;;10483477;28;20024;-64
2023/05/16 21:20:44;;;;;;;2.65;1.90;;;;;;;;;;10484266;28;20108;-64
2023/05/16 21:25:45;;;;;;;2.95;1.98;;;;;;;;;;10480979;28;20134;-61
2023/05/16 21:30:46;;;;;;;2.47;1.75;;;;;;;;;;10473712;28;20025;-63
2023/05/16 21:35:47;;;;;;;5.53;1.90;;;;;;;;;;10479181;28;20054;-61
2023/05/16 21:40:48;;;;;;;3.17;2.05;;;;;;;;;;10477289;28;20655;-62
2023/05/16 21:45:49;;;;;;;3.83;1.98;;;;;;;;;;10470799;28;20419;-64
2023/05/16 21:50:50;;;;;;;2.20;1.75;;;;;;;;;;10488260;28;20024;-65
2023/05/16 21:55:51;;;;;;;5.68;2.03;;;;;;;;;;10492299;28;20099;-61
2023/05/16 22:00:51;;;;;;;4.03;1.83;;;;;;;;;;10489705;28;20036;-62
2023/05/16 22:05:52;;;;;;;8.75;2.17;;;;;;;;;;10481016;28;20020;-64
2023/05/16 22:10:53;;;;;;;6.57;1.80;;;;;;;;;;10492608;28;20361;-64
2023/05/16 22:15:53;;;;;;;3.90;1.73;;;;;;;;;;10493104;28;20025;-63
2023/05/16 22:20:54;;;;;;;2.80;1.88;;;;;;;;;;10491915;28;20043;-65
2023/05/16 22:25:55;;;;;;;6.60;1.85;;;;;;;;;;10478408;28;20025;-63
2023/05/16 22:30:55;;;;;;;2.20;1.90;;;;;;;;;;10491184;28;20082;-63
2023/05/16 22:35:56;;;;;;;2.17;1.77;;;;;;;;;;10491730;28;20033;-64
2023/05/16 22:40:57;;;;;;;3.75;2.10;;;;;;;;;;10492403;28;20036;-64
2023/05/16 22:45:57;;;;;;;2.67;1.90;;;;;;;;;;10477905;28;20049;-64
2023/05/16 22:50:58;;;;;;;2.88;1.75;;;;;;;;;;10491439;28;20078;-63
2023/05/16 22:55:59;;;;;;;2.38;1.60;;;;;;;;;;10491596;28;20035;-64
2023/05/16 23:01:01;;;;;;;2.08;1.73;;;;;;;;;;10491178;28;20471;-63
2023/05/16 23:06:01;;;;;;;2.67;1.88;;;;;;;;;;10490065;28;20119;-64
2023/05/16 23:11:02;;;;;;;2.33;1.85;;;;;;;;;;10491887;28;20085;-63
2023/05/16 23:16:02;;;;;;;6.00;2.17;;;;;;;;;;10490856;28;20047;-63
2023/05/16 23:21:03;;;;;;;2.63;1.90;;;;;;;;;;10489688;28;20028;-64
2023/05/16 23:26:04;;;;;;;2.03;1.85;;;;;;;;;;10474672;28;20471;-61
2023/05/16 23:31:05;;;;;;;6.38;2.45;;;;;;;;;;10488997;28;20024;-59
2023/05/16 23:36:06;;;;;;;3.55;2.00;;;;;;;;;;10489654;28;20031;-63
2023/05/16 23:41:06;;;;;;;2.10;1.90;;;;;;;;;;10489508;28;20027;-63
2023/05/16 23:46:07;;;;;;;2.20;2.00;;;;;;;;;;10488189;28;20067;-64
2023/05/16 23:51:07;;;;;;;3.13;1.90;;;;;;;;;;10489455;28;20059;-63
2023/05/16 23:56:08;;;;;;;3.00;2.15;;;;;;;;;;10488552;28;20491;-62
